Adams Landing, Vermont
Current Conditions -  °F | °C
As of 6:53 AM on Saturday 01 Nov 2014 (Local Time) from KPBG Reporting Station
Overcast Overcast  
Wind Chill: 28°   Ceiling: 6500
Heat Index: 36°   Visibility: 10mi
Dew Point: 29°   Wind: 12mph
Humidity: 76%   Direction: 340°NNW
Pressure: 30.05"   Gusts: NA
Location:  44.717°N, 73.3067°W
Report Text: KPBG 011053Z AUTO 34010KT 10SM OVC065 02/M02 A3005 RMK AO2 SLP179 T00221017
Loading
Personal Weather Stations






























Interactive Weather Map
Tropical Storm Tracking
New forecast layout! Learn more

10-Day Weather Forecast

Advertisements
Track Severe Weather on mobile